Flight Track Log - Related Links

Times and Time Zones

All times are in EDT time to prevent confusion due to time zone crossing. See the EGF3711 flight status page for this flight to view local times or setup timezone preferences in your user account.

Time Position Orientation Groundspeed Altitude Reporting Facility
EDT Latitude Longitude Course Direction KTS MPH feet Rate Location/Type
Mon 02:37:00 PM 39.2167 -94.7333 194° South 201 231 4,200  Level Kansas City TRACON
Mon 02:38:00 PM 39.4664 -94.4957 41° Northeast  Level FlightAware Approximate
Mon 02:38:00 PM 39.1500 -94.7333 180° South 256 295 5,900  Level Kansas City TRACON
Mon 02:39:00 PM 39.5379 -94.4138 41° Northeast  Level FlightAware Approximate
Mon 02:39:00 PM 39.1333 -94.6667 108° East 296 341 7,800  Level Kansas City TRACON
Mon 02:40:00 PM 39.6064 -94.3276 45° Northeast  Level FlightAware Approximate
Mon 02:40:24 PM 39.2364 -94.5800 33° Northeast 312 359 10,400  Level Kansas City Center
Mon 02:41:00 PM 39.6739 -94.2399 47° Northeast  Level FlightAware Approximate
Mon 02:41:26 PM 39.3231 -94.5083 33° Northeast 333 383 11,900  Level Kansas City Center
Mon 02:42:28 PM 39.4014 -94.4422 33° Northeast 349 402 13,300 1,210 Climbing Kansas City Center
Mon 02:43:30 PM 39.4817 -94.3747 33° Northeast 358 412 14,400 1,210 Climbing Kansas City Center
Mon 02:44:32 PM 39.5778 -94.2931 33° Northeast 370 426 15,800 1,220 Climbing Kansas City Center
Mon 02:45:33 PM 39.6511 -94.2022 44° Northeast 389 448 16,900 1,073 Climbing Kansas City Center
Mon 02:46:35 PM 39.7350 -94.0892 46° Northeast 389 448 18,000 1,161 Climbing Kansas City Center
Mon 02:47:37 PM 39.8092 -93.9881 46° Northeast 383 441 19,300 1,355 Climbing Kansas City Center
Mon 02:48:39 PM 39.8758 -93.8969 46° Northeast 388 447 20,800 1,512 Climbing Kansas City Center
Mon 02:49:40 PM 39.9642 -93.7789 46° Northeast 382 440 22,400 1,268 Climbing Kansas City Center
Mon 02:50:42 PM 40.0050 -93.6539 67° East 392 451 23,400 1,113 Climbing Kansas City Center
Mon 02:51:44 PM 40.0367 -93.5208 73° East 392 451 24,700 1,161 Climbing Kansas City Center
Mon 02:52:46 PM 40.0689 -93.3889 72° East 387 445 25,800 1,220 Climbing Kansas City Center
Mon 02:53:47 PM 40.1031 -93.2558 71° East 389 448 27,200 1,220 Climbing Kansas City Center
Mon 02:54:49 PM 40.1367 -93.1275 71° East 382 440 28,300 871 Climbing Kansas City Center
Mon 02:55:51 PM 40.1764 -92.9664 72° East 386 444 29,000 339 Climbing Kansas City Center
Mon 02:56:53 PM 40.2117 -92.8253 72° East 420 483 29,000  Level Kansas City Center
Mon 02:57:55 PM 40.2542 -92.6539 72° East 439 505 29,000  Level Kansas City Center
Mon 02:58:57 PM 40.2914 -92.4981 73° East 455 524 29,000  Level Kansas City Center
Mon 02:59:58 PM 40.3347 -92.3244 72° East 481 554 29,000  Level Kansas City Center
Mon 03:01:00 PM 40.3750 -92.1572 72° East 486 559 29,000  Level Kansas City Center
Mon 03:01:44 PM 40.4078 -92.0217 72° East 489 563 29,000  Level Chicago Center
Mon 03:03:04 PM 40.4561 -91.8147 73° East 495 570 29,000  Level Kansas City Center
Mon 03:04:06 PM 40.5061 -91.6081 72° East 498 573 29,000  Level Kansas City Center
Mon 03:05:07 PM 40.5456 -91.4336 73° East 502 578 29,000  Level Kansas City Center
Mon 03:06:09 PM 40.5983 -91.2614 68° East 499 574 29,000  Level Kansas City Center
Mon 03:06:55 PM 40.6486 -91.1303 63° Northeast 498 573 29,000 -56 Level Chicago Center
Mon 03:07:57 PM 40.7050 -90.9647 66° East 495 570 28,900 -581 Descending Chicago Center
Mon 03:08:59 PM 40.7617 -90.7953 66° East 502 578 27,800 -1,210 Descending Chicago Center
Mon 03:10:01 PM 40.8189 -90.6289 66° East 499 574 26,400 -1,403 Descending Chicago Center
Mon 03:11:03 PM 40.8697 -90.4725 67° East 466 536 24,900 -1,152 Descending Chicago Center
Mon 03:12:06 PM 40.9200 -90.3244 66° East 445 512 24,000 -432 Descending Chicago Center
Mon 03:13:08 PM 40.9681 -90.1811 66° East 428 493 24,000  Level Chicago Center
Mon 03:14:10 PM 41.0256 -90.0033 67° East 432 497 24,000  Level Chicago Center
Mon 03:15:12 PM 41.0736 -89.8575 66° East 429 494 24,000  Level Chicago Center
Mon 03:16:14 PM 41.1206 -89.7117 67° East 428 493 24,000  Level Chicago Center
Mon 03:17:16 PM 41.1700 -89.5614 66° East 439 505 24,000 -1,065 Level Chicago Center
Mon 03:18:18 PM 41.2292 -89.4183 61° Northeast 442 509 21,800 -2,274 Descending Chicago Center
Mon 03:19:20 PM 41.2856 -89.2772 62° Northeast 433 498 19,300 -2,323 Descending Chicago Center
Mon 03:20:22 PM 41.3394 -89.1419 62° Northeast 417 480 17,000 -2,544 Descending Chicago Center
Mon 03:21:25 PM 41.4019 -88.9875 62° Northeast 396 456 14,000 -2,640 Descending Chicago Center
Mon 03:22:27 PM 41.4514 -88.8603 63° Northeast 391 450 11,500 -1,452 Descending Chicago Center
Mon 03:23:29 PM 41.4956 -88.7433 63° Northeast 360 414 11,000 -242 Descending Chicago Center
Mon 03:24:31 PM 41.5361 -88.6419 62° Northeast 319 367 11,000  Level Chicago Center
Mon 03:25:33 PM 41.5772 -88.5397 62° Northeast 314 361 11,000 -774 Level Chicago Center
Mon 03:26:35 PM 41.6178 -88.4417 61° Northeast 307 353 9,400 -1,452 Descending Chicago Center
Mon 03:27:37 PM 41.6778 -88.3439 51° Northeast 288 331 8,000 -677 Descending Chicago Center
Mon 03:28:39 PM 41.7544 -88.3394 North 285 328 8,000 -290 Level Chicago Center
Mon 03:29:41 PM 41.8333 -88.3408 359° North 274 315 7,400 -1,104 Descending Chicago Center
Mon 03:30:44 PM 41.9078 -88.3447 358° North 269 310 5,700 -1,152 Descending Chicago Center
Mon 03:31:46 PM 41.9608 -88.2828 41° Northeast 282 325 5,000 -484 Descending Chicago Center
Mon 03:32:48 PM 41.9736 -88.2378 69° East 223 257 4,700 -690 Descending Chicago Center
Mon 03:35:06 PM 41.9667 -88.0667 93° East 184 212 2,700 -909 Descending Chicago TRACON
Mon 03:36:06 PM 41.9667 -88.0000 90° East 163 188 1,700 -850 Descending Chicago TRACON
Mon 03:37:06 PM 41.9667 -87.9500 90° East 148 170 1,000 -700 Descending Chicago TRACON

Login

Don't have an account? Register now (free) for customized features, flight alerts, and more!